Terminal Aerodrome Forecast
Issued by NWS Cleveland, OH

Home | Current Version | Previous Version | Graphics & Text | Print | Product List | Glossary Off
Versions: 1 2 3 4 5 6 7 8 9 10 11 12 13 14 15 16 17 18 19 20

000
FTUS41 KCLE 061300 AAA
TAFYNG
TAF AMD
KYNG 061308Z 0613/0712 12005KT P6SM SCT080 BKN250
     FM070500 VRB03KT 4SM BR SCT250
     FM070800 00000KT 2SM BR SCT004=

USA.gov is the U.S. government's official web portal to all federal, state and local government web resources and services.